createdAt,value
2017-10-06T00:03:06.501Z,57.00
2017-10-06T00:06:31.939Z,57.10
2017-10-06T00:09:57.873Z,57.00
2017-10-06T00:13:23.402Z,57.00
2017-10-06T00:16:48.803Z,57.20
2017-10-06T00:20:14.909Z,57.10
2017-10-06T00:23:40.413Z,57.10
2017-10-06T00:27:07.269Z,57.20
2017-10-06T00:30:33.170Z,57.20
2017-10-06T00:33:58.527Z,57.00
2017-10-06T00:37:23.987Z,57.00
2017-10-06T00:40:50.366Z,57.00
2017-10-06T00:44:17.297Z,57.00
2017-10-06T00:47:44.675Z,57.00
2017-10-06T00:51:13.157Z,57.10
2017-10-06T00:54:38.557Z,57.10
2017-10-06T00:58:04.114Z,57.10
2017-10-06T01:01:30.946Z,57.00
2017-10-06T01:04:56.357Z,57.00
2017-10-06T01:08:22.761Z,57.00
2017-10-06T01:11:48.405Z,56.90
2017-10-06T01:15:14.093Z,57.00
2017-10-06T01:18:39.477Z,56.90
2017-10-06T01:22:05.366Z,56.90
2017-10-06T01:25:30.778Z,56.90
2017-10-06T01:28:56.274Z,56.90
2017-10-06T01:32:22.276Z,56.60
2017-10-06T01:35:47.814Z,56.70
2017-10-06T01:39:13.179Z,56.60
2017-10-06T01:42:39.883Z,56.80
2017-10-06T01:46:05.259Z,56.70
2017-10-06T01:49:34.085Z,56.70
2017-10-06T01:53:00.206Z,56.70
2017-10-06T01:56:25.515Z,56.70
2017-10-06T01:59:52.122Z,56.70
2017-10-06T02:03:18.483Z,56.70
2017-10-06T02:06:44.742Z,56.80
2017-10-06T02:10:12.517Z,56.80
2017-10-06T02:13:38.028Z,56.70
2017-10-06T02:17:03.991Z,56.80
2017-10-06T02:20:30.021Z,56.80
2017-10-06T02:23:55.574Z,56.90
2017-10-06T02:27:21.614Z,56.70
2017-10-06T02:30:47.643Z,56.70
2017-10-06T02:34:13.053Z,56.70
2017-10-06T02:37:38.501Z,56.80
2017-10-06T02:41:06.157Z,56.70
2017-10-06T02:44:31.638Z,56.80
2017-10-06T02:47:57.602Z,56.70
2017-10-06T02:51:23.481Z,56.70
2017-10-06T02:54:48.831Z,56.80
2017-10-06T02:58:15.943Z,56.60
2017-10-06T03:01:41.414Z,56.70
2017-10-06T03:05:06.811Z,56.80
2017-10-06T03:08:32.658Z,56.80
2017-10-06T03:11:58.917Z,56.70
2017-10-06T03:15:24.374Z,57.30
2017-10-06T03:18:50.372Z,57.20
2017-10-06T03:22:15.739Z,56.40
2017-10-06T03:25:41.178Z,56.60
2017-10-06T03:29:07.807Z,56.60
2017-10-06T03:32:34.773Z,56.50
2017-10-06T03:36:00.273Z,56.50
2017-10-06T03:39:26.270Z,56.40
2017-10-06T03:42:51.730Z,56.40
2017-10-06T03:46:16.858Z,56.50
2017-10-06T03:49:43.457Z,56.60
2017-10-06T03:53:08.978Z,56.50
2017-10-06T03:56:34.427Z,56.50
2017-10-06T04:00:01.167Z,56.70
2017-10-06T04:03:27.427Z,56.30
2017-10-06T04:06:53.917Z,55.40
2017-10-06T04:10:19.454Z,55.40
2017-10-06T04:13:44.870Z,54.90
2017-10-06T04:17:10.736Z,54.00
2017-10-06T04:20:38.241Z,52.50
2017-10-06T04:24:03.493Z,52.40
2017-10-06T04:27:29.087Z,51.50
2017-10-06T04:30:54.385Z,50.80
2017-10-06T04:34:23.651Z,49.90
2017-10-06T04:37:53.483Z,49.10
2017-10-06T04:41:19.725Z,48.00
2017-10-06T04:44:46.360Z,47.60
2017-10-06T04:48:12.703Z,47.00
2017-10-06T04:51:38.090Z,46.80
2017-10-06T04:55:03.544Z,46.50
2017-10-06T04:58:29.698Z,46.10
2017-10-06T05:01:55.486Z,46.00
2017-10-06T05:05:20.902Z,46.00
2017-10-06T05:08:46.712Z,45.80
2017-10-06T05:12:12.594Z,45.60
2017-10-06T05:15:37.982Z,45.70
2017-10-06T05:19:04.164Z,45.40
2017-10-06T05:22:30.978Z,45.40
2017-10-06T05:25:56.495Z,45.40
2017-10-06T05:29:22.354Z,45.50
2017-10-06T05:32:52.056Z,45.50
2017-10-06T05:36:17.534Z,45.60
2017-10-06T05:39:42.870Z,45.60
2017-10-06T05:43:09.094Z,45.50
2017-10-06T05:46:34.993Z,45.60
2017-10-06T05:50:01.038Z,45.60
2017-10-06T05:53:27.215Z,45.90
2017-10-06T05:56:52.664Z,46.20
2017-10-06T06:00:18.506Z,46.40
2017-10-06T06:03:44.190Z,46.60
2017-10-06T06:07:09.629Z,46.90
2017-10-06T06:10:34.823Z,47.30
2017-10-06T06:13:59.970Z,47.60
2017-10-06T06:17:25.097Z,47.90
2017-10-06T06:20:51.949Z,48.70
2017-10-06T06:24:18.177Z,48.60
2017-10-06T06:27:45.587Z,49.10
2017-10-06T06:31:13.233Z,49.40
2017-10-06T06:34:40.472Z,49.90
2017-10-06T06:38:09.744Z,49.90
2017-10-06T06:41:38.128Z,50.10
2017-10-06T06:45:08.384Z,50.30
2017-10-06T06:48:33.450Z,50.50
2017-10-06T06:51:59.034Z,50.70
2017-10-06T06:55:25.670Z,51.00
2017-10-06T06:58:51.182Z,51.00
2017-10-06T07:02:16.575Z,51.30
2017-10-06T07:05:42.600Z,51.50
2017-10-06T07:09:11.794Z,51.80
2017-10-06T07:16:07.758Z,52.20
2017-10-06T07:19:34.999Z,52.40
2017-10-06T07:23:00.695Z,52.50
2017-10-06T07:26:26.362Z,52.60
2017-10-06T07:29:51.857Z,52.70
2017-10-06T07:33:20.993Z,52.90
2017-10-06T07:36:46.493Z,53.00
2017-10-06T07:40:11.914Z,53.00
2017-10-06T07:43:41.620Z,53.10
2017-10-06T07:47:07.601Z,53.30
2017-10-06T07:50:33.391Z,53.30
2017-10-06T07:53:59.231Z,53.70
2017-10-06T07:57:24.964Z,52.70
2017-10-06T08:00:55.970Z,52.20
2017-10-06T08:04:21.447Z,51.90
2017-10-06T08:07:46.891Z,51.60
2017-10-06T08:11:13.558Z,51.10
2017-10-06T08:14:54.762Z,50.90
2017-10-06T08:18:21.161Z,50.20
2017-10-06T08:21:53.551Z,49.70
2017-10-06T08:28:50.517Z,49.20
2017-10-06T08:32:16.181Z,48.90
2017-10-06T08:35:42.173Z,48.70
2017-10-06T08:39:08.637Z,48.10
2017-10-06T08:42:34.696Z,48.10
2017-10-06T08:46:00.678Z,47.80
2017-10-06T08:49:26.521Z,47.70
2017-10-06T08:52:52.327Z,47.70
2017-10-06T08:56:18.775Z,47.50
2017-10-06T08:59:49.373Z,47.50
2017-10-06T09:03:14.632Z,47.50
2017-10-06T09:06:42.465Z,47.50
2017-10-06T09:10:08.112Z,47.40
2017-10-06T09:13:33.529Z,47.20
2017-10-06T09:20:33.078Z,47.30
2017-10-06T09:23:58.487Z,47.20
2017-10-06T09:27:23.981Z,47.10
2017-10-06T09:30:57.812Z,47.60
2017-10-06T09:34:25.055Z,47.20
2017-10-06T09:37:55.514Z,47.20
2017-10-06T09:41:21.734Z,47.20
2017-10-06T09:44:46.817Z,47.20
2017-10-06T09:48:12.933Z,47.00
2017-10-06T09:51:39.142Z,47.00
2017-10-06T09:58:39.591Z,47.00
2017-10-06T10:02:04.774Z,46.90
2017-10-06T10:05:35.489Z,47.10
2017-10-06T10:09:00.819Z,47.10
2017-10-06T10:12:27.068Z,46.90
2017-10-06T10:19:23.382Z,46.90
2017-10-06T10:26:23.561Z,47.00
2017-10-06T10:29:49.289Z,47.00
2017-10-06T10:33:15.509Z,47.40
2017-10-06T10:36:40.734Z,47.50
2017-10-06T10:40:06.085Z,47.80
2017-10-06T10:43:32.167Z,48.00
2017-10-06T10:46:57.661Z,48.40
2017-10-06T10:50:28.165Z,49.20
2017-10-06T10:53:56.608Z,49.40
2017-10-06T10:57:22.330Z,49.40
2017-10-06T11:00:48.252Z,49.60
2017-10-06T11:04:14.864Z,49.80
2017-10-06T11:07:40.483Z,49.90
2017-10-06T11:11:07.281Z,49.80
2017-10-06T11:14:33.376Z,49.80
2017-10-06T11:17:59.553Z,49.50
2017-10-06T11:21:25.230Z,49.50
2017-10-06T11:24:51.193Z,49.80
2017-10-06T11:28:19.009Z,49.40
2017-10-06T11:35:19.510Z,49.40
2017-10-06T11:38:45.854Z,49.50
2017-10-06T11:42:11.164Z,50.30
2017-10-06T11:45:36.663Z,49.80
2017-10-06T11:49:03.254Z,50.10
2017-10-06T11:52:29.581Z,50.10
2017-10-06T11:55:54.914Z,50.20
2017-10-06T11:59:24.173Z,50.30
2017-10-06T12:02:50.146Z,50.70
2017-10-06T12:06:15.389Z,50.70
2017-10-06T12:09:45.474Z,50.90
2017-10-06T12:13:10.834Z,50.80
2017-10-06T12:16:36.398Z,51.00
2017-10-06T12:20:02.211Z,51.20
2017-10-06T12:23:27.905Z,51.50
2017-10-06T12:26:53.396Z,51.60
2017-10-06T12:30:19.504Z,51.60
2017-10-06T12:33:45.328Z,51.20
2017-10-06T12:37:17.092Z,50.90
2017-10-06T12:44:16.136Z,50.60
2017-10-06T12:47:44.457Z,50.90
2017-10-06T12:51:10.154Z,50.80
2017-10-06T12:54:36.499Z,50.70
2017-10-06T12:58:06.288Z,50.60
2017-10-06T13:01:31.989Z,50.30
2017-10-06T13:04:57.758Z,50.00
2017-10-06T13:08:23.301Z,50.10
2017-10-06T13:11:53.078Z,50.90
2017-10-06T13:15:19.601Z,50.90
2017-10-06T13:22:22.588Z,51.10
2017-10-06T13:25:49.183Z,51.10
2017-10-06T13:29:15.130Z,51.20
2017-10-06T13:32:46.790Z,51.20
2017-10-06T13:36:19.652Z,51.30
2017-10-06T13:39:46.113Z,51.30
2017-10-06T13:43:15.761Z,51.40
2017-10-06T13:46:41.054Z,51.60
2017-10-06T13:50:14.165Z,51.80
2017-10-06T13:53:39.629Z,51.80
2017-10-06T13:57:05.566Z,51.30
2017-10-06T14:04:00.981Z,51.10
2017-10-06T14:07:38.526Z,50.80
2017-10-06T14:11:05.864Z,50.80
2017-10-06T14:14:30.970Z,50.70
2017-10-06T14:18:00.789Z,51.10
2017-10-06T14:21:26.058Z,51.00
2017-10-06T14:24:54.738Z,51.20
2017-10-06T14:31:50.033Z,51.90
2017-10-06T14:35:22.381Z,50.50
2017-10-06T14:38:47.564Z,50.50
2017-10-06T14:42:12.733Z,50.10
2017-10-06T14:45:38.238Z,49.50
2017-10-06T14:49:04.052Z,48.90
2017-10-06T14:52:29.917Z,48.60
2017-10-06T14:56:01.175Z,48.30
2017-10-06T14:59:26.337Z,47.60
2017-10-06T15:02:55.989Z,47.50
2017-10-06T15:06:21.919Z,46.80
2017-10-06T15:13:19.302Z,46.20
2017-10-06T15:16:44.721Z,46.20
2017-10-06T15:23:53.834Z,46.00
2017-10-06T15:27:19.201Z,45.90
2017-10-06T15:30:44.951Z,46.00
2017-10-06T15:34:10.262Z,46.20
2017-10-06T15:37:40.504Z,46.10
2017-10-06T15:41:05.960Z,46.10
2017-10-06T15:44:37.127Z,46.30
2017-10-06T15:48:02.443Z,46.30
2017-10-06T15:51:28.057Z,46.10
2017-10-06T15:54:58.395Z,46.10
2017-10-06T15:58:23.812Z,46.10
2017-10-06T16:01:49.289Z,46.30
2017-10-06T16:05:15.259Z,46.00
2017-10-06T16:08:40.445Z,46.00
2017-10-06T16:12:06.155Z,46.10
2017-10-06T16:15:32.181Z,46.20
2017-10-06T16:18:57.765Z,46.00
2017-10-06T16:22:23.282Z,46.10
2017-10-06T16:25:50.509Z,46.20
2017-10-06T16:29:16.906Z,46.00
2017-10-06T16:32:42.359Z,45.90
2017-10-06T16:36:12.795Z,46.50
2017-10-06T16:39:38.408Z,46.20
2017-10-06T16:43:19.647Z,46.10
2017-10-06T16:46:45.694Z,46.00
2017-10-06T16:50:11.049Z,46.10
2017-10-06T16:53:37.065Z,46.10
2017-10-06T16:57:02.590Z,45.80
2017-10-06T17:00:28.203Z,45.60
2017-10-06T17:03:55.921Z,45.90
2017-10-06T17:07:22.266Z,45.60
2017-10-06T17:10:47.817Z,45.60
2017-10-06T17:14:14.410Z,45.60
2017-10-06T17:17:40.318Z,45.60
2017-10-06T17:21:08.808Z,45.40
2017-10-06T17:24:34.595Z,45.20
2017-10-06T17:28:17.322Z,45.60
2017-10-06T17:31:44.941Z,45.70
2017-10-06T17:35:10.144Z,45.70
2017-10-06T17:38:35.548Z,45.80
2017-10-06T17:42:01.765Z,45.90
2017-10-06T17:45:28.031Z,45.80
2017-10-06T17:48:53.782Z,45.70
2017-10-06T17:52:19.362Z,46.10
2017-10-06T17:55:55.305Z,46.10
2017-10-06T17:59:20.466Z,46.00
2017-10-06T18:02:45.875Z,46.10
2017-10-06T18:09:47.931Z,46.50
2017-10-06T18:13:16.946Z,46.80
2017-10-06T18:22:25.931Z,47.20
2017-10-06T18:29:39.677Z,48.80
2017-10-06T18:33:06.394Z,49.10
2017-10-06T18:41:52.823Z,49.30
2017-10-06T18:50:48.557Z,49.90
2017-10-06T18:54:14.293Z,50.30
2017-10-06T18:57:40.401Z,50.50
2017-10-06T19:01:05.700Z,50.70
2017-10-06T19:04:31.120Z,50.90
2017-10-06T19:08:02.725Z,51.10
2017-10-06T19:11:28.895Z,51.50
2017-10-06T19:14:54.448Z,51.40
2017-10-06T19:18:21.211Z,51.60
2017-10-06T19:21:47.978Z,51.70
2017-10-06T19:25:13.391Z,51.90
2017-10-06T19:28:39.177Z,52.00
2017-10-06T19:32:05.554Z,51.80
2017-10-06T19:35:31.267Z,51.70
2017-10-06T19:38:56.777Z,51.80
2017-10-06T19:42:27.010Z,51.70
2017-10-06T19:45:52.419Z,51.30
2017-10-06T19:49:17.812Z,51.20
2017-10-06T19:52:44.560Z,51.50
2017-10-06T19:56:10.103Z,50.90
2017-10-06T19:59:36.476Z,50.50
2017-10-06T20:03:02.446Z,50.30
2017-10-06T20:06:28.046Z,50.20
2017-10-06T20:09:53.509Z,50.10
2017-10-06T20:13:19.482Z,49.70
2017-10-06T20:16:45.073Z,49.50
2017-10-06T20:20:10.720Z,49.50
2017-10-06T20:23:37.964Z,49.40
2017-10-06T20:27:09.008Z,49.50
2017-10-06T20:30:34.596Z,49.40
2017-10-06T20:34:00.367Z,49.70
2017-10-06T20:37:25.891Z,49.80
2017-10-06T20:40:51.595Z,50.00
2017-10-06T20:44:17.367Z,50.20
2017-10-06T20:47:43.762Z,50.40
2017-10-06T20:51:09.175Z,50.40
2017-10-06T20:54:36.131Z,50.60
2017-10-06T20:58:01.515Z,50.70
2017-10-06T21:01:28.546Z,51.10
2017-10-06T21:04:54.385Z,51.00
2017-10-06T21:08:20.770Z,51.30
2017-10-06T21:11:45.884Z,51.30
2017-10-06T21:15:15.806Z,52.10
2017-10-06T21:18:41.267Z,51.80
2017-10-06T21:22:06.991Z,51.80
2017-10-06T21:25:33.227Z,52.30
2017-10-06T21:28:59.314Z,52.30
2017-10-06T21:32:25.368Z,52.50
2017-10-06T21:35:50.635Z,52.60
2017-10-06T21:39:16.073Z,52.70
2017-10-06T21:42:42.968Z,52.80
2017-10-06T21:46:08.598Z,53.10
2017-10-06T21:49:34.238Z,53.20
2017-10-06T21:52:59.562Z,53.30
2017-10-06T21:56:25.246Z,53.40
2017-10-06T21:59:51.239Z,53.40
2017-10-06T22:03:16.713Z,53.60
2017-10-06T22:06:42.135Z,53.80
2017-10-06T22:10:08.155Z,54.00
2017-10-06T22:13:33.593Z,53.90
2017-10-06T22:17:00.353Z,54.10
2017-10-06T22:20:25.742Z,54.10
2017-10-06T22:23:51.303Z,54.20
2017-10-06T22:27:16.870Z,54.20
2017-10-06T22:30:42.715Z,54.40
2017-10-06T22:34:08.582Z,54.50
2017-10-06T22:37:34.286Z,54.50
2017-10-06T22:41:01.392Z,54.50
2017-10-06T22:44:26.844Z,54.50
2017-10-06T22:47:53.469Z,54.60
2017-10-06T22:51:18.570Z,54.60
2017-10-06T22:54:44.694Z,54.80
2017-10-06T22:58:10.893Z,54.80
2017-10-06T23:01:36.361Z,54.70
2017-10-06T23:05:01.456Z,54.80
2017-10-06T23:08:26.941Z,54.80
2017-10-06T23:11:52.315Z,54.90
2017-10-06T23:15:17.402Z,54.90
2017-10-06T23:18:42.765Z,54.90
2017-10-06T23:22:08.150Z,54.90
2017-10-06T23:25:33.452Z,55.00
2017-10-06T23:28:59.393Z,55.00
2017-10-06T23:32:26.528Z,55.20
2017-10-06T23:35:51.861Z,55.10
2017-10-06T23:39:18.040Z,55.00
2017-10-06T23:42:43.329Z,55.10
2017-10-06T23:46:08.860Z,55.10
2017-10-06T23:49:37.613Z,55.30
2017-10-06T23:53:04.999Z,55.30
2017-10-06T23:56:31.122Z,55.30
2017-10-06T23:59:56.445Z,55.30
